Logan Peak - 24 Hour Table
Date & TimeSolar
Radiation
(W/m²)
Wind
Speed
(mph)
Wind
Direction
(degrees)
Air
Temperature
(°F)
Relative
Humidity
(%)
Barometeric
Pressure
(inHg)
2019/02/17 18:00 12 9999 "NAN" 5.7 93 29.50
2019/02/17 17:00 61 9999 "NAN" 6.9 93 29.50
2019/02/17 16:00 108 9999 "NAN" 7.8 93 29.50
2019/02/17 15:00 139 9999 "NAN" 8.3 94 29.49
2019/02/17 14:00 167 9999 "NAN" 8.9 94 29.49
2019/02/17 13:00 176 9999 "NAN" 9.0 94 29.50
2019/02/17 12:00 125 9999 "NAN" 10.8 94 29.51
2019/02/17 11:00 151 9999 "NAN" 18.4 97 29.50
2019/02/17 10:00 124 9999 "NAN" 11.2 97 29.50
2019/02/17 09:00 45 9999 "NAN" 6.0 94 29.50
2019/02/17 08:00 4 9999 "NAN" 5.7 93 29.50
2019/02/17 07:00 0 9999 "NAN" 5.8 93 29.48
2019/02/17 06:00 0 8.3 234 5.8 93 29.48
2019/02/17 05:00 0 14.9 220 5.7 93 29.47
2019/02/17 04:00 0 14.5 243 6.1 93 29.46
2019/02/17 03:00 0 13.3 236 6.6 93 29.46
2019/02/17 02:00 0 13.0 248 6.9 93 29.47
2019/02/17 01:00 0 15.3 260 7.3 94 29.46
2019/02/17 00:00 0 17.3 246 7.4 94 29.46
2019/02/16 23:00 0 20.2 211 7.3 94 29.46
2019/02/16 22:00 0 20.8 200 7.4 94 29.46
2019/02/16 21:00 0 17.7 215 7.3 94 29.46
2019/02/16 20:00 0 19.4 205 7.3 94 29.47
2019/02/16 19:00 0 19.3 214 8.0 94 29.47